createdAt,value
2019-03-18T00:01:09.806Z,76.18
2019-03-18T00:03:39.748Z,76.23
2019-03-18T00:06:09.736Z,75.40
2019-03-18T00:08:39.650Z,76.69
2019-03-18T00:11:09.737Z,75.92
2019-03-18T00:13:39.703Z,74.62
2019-03-18T00:16:09.807Z,74.35
2019-03-18T00:18:39.834Z,73.98
2019-03-18T00:21:09.934Z,73.97
2019-03-18T00:23:41.052Z,73.92
2019-03-18T00:26:11.097Z,73.41
2019-03-18T00:28:40.946Z,73.95
2019-03-18T00:31:10.882Z,73.52
2019-03-18T00:33:40.794Z,73.50
2019-03-18T00:36:10.737Z,73.81
2019-03-18T00:38:40.777Z,73.04
2019-03-18T00:41:10.616Z,73.33
2019-03-18T00:43:40.536Z,73.03
2019-03-18T00:46:10.467Z,72.54
2019-03-18T00:48:40.524Z,72.39
2019-03-18T00:51:10.515Z,72.70
2019-03-18T00:53:40.543Z,73.74
2019-03-18T00:56:10.515Z,73.35
2019-03-18T00:58:40.769Z,73.17
2019-03-18T01:01:10.889Z,73.13
2019-03-18T01:03:40.929Z,73.12
2019-03-18T01:06:11.014Z,72.52
2019-03-18T01:08:41.110Z,73.39
2019-03-18T01:11:11.018Z,72.26
2019-03-18T01:13:40.958Z,73.52
2019-03-18T01:16:10.947Z,72.23
2019-03-18T01:18:40.969Z,71.30
2019-03-18T01:21:10.949Z,71.39
2019-03-18T01:23:40.898Z,71.18
2019-03-18T01:26:10.879Z,72.39
2019-03-18T01:28:40.876Z,71.40
2019-03-18T01:31:10.810Z,72.23
2019-03-18T01:33:40.786Z,71.48
2019-03-18T01:36:10.700Z,71.46
2019-03-18T01:38:42.104Z,70.53
2019-03-18T01:41:11.927Z,71.17
2019-03-18T01:43:41.947Z,71.41
2019-03-18T01:46:11.987Z,71.33
2019-03-18T01:48:41.950Z,71.73
2019-03-18T01:51:11.910Z,71.56
2019-03-18T01:53:41.891Z,71.60
2019-03-18T01:56:11.806Z,71.13
2019-03-18T01:58:41.775Z,71.01
2019-03-18T02:01:11.783Z,70.91
2019-03-18T02:03:41.617Z,71.03
2019-03-18T02:06:11.685Z,71.00
2019-03-18T02:08:41.566Z,70.75
2019-03-18T02:11:11.439Z,70.13
2019-03-18T02:13:41.386Z,70.77
2019-03-18T02:16:11.353Z,70.92
2019-03-18T02:18:44.150Z,70.80
2019-03-18T02:21:14.100Z,70.34
2019-03-18T02:23:43.929Z,70.40
2019-03-18T02:26:13.859Z,70.38
2019-03-18T02:28:43.680Z,70.70
2019-03-18T02:31:13.519Z,70.61
2019-03-18T02:33:43.463Z,71.22
2019-03-18T02:36:13.456Z,71.02
2019-03-18T02:38:43.386Z,71.10
2019-03-18T02:41:13.256Z,70.76
2019-03-18T02:43:43.204Z,70.72
2019-03-18T02:46:13.211Z,70.72
2019-03-18T02:48:43.064Z,70.39
2019-03-18T02:51:12.910Z,70.90
2019-03-18T02:53:42.771Z,70.02
2019-03-18T02:56:12.807Z,70.48
2019-03-18T02:58:42.812Z,70.35
2019-03-18T03:01:13.782Z,70.70
2019-03-18T03:03:43.707Z,70.97
2019-03-18T03:06:13.546Z,71.96
2019-03-18T03:08:43.385Z,71.79
2019-03-18T03:11:13.317Z,71.77
2019-03-18T03:13:43.286Z,72.28
2019-03-18T03:16:25.567Z,72.24
2019-03-18T03:18:44.808Z,72.74
2019-03-18T03:21:14.740Z,72.60
2019-03-18T03:23:44.593Z,73.01
2019-03-18T03:26:14.517Z,72.69
2019-03-18T03:28:44.382Z,72.02
2019-03-18T03:31:14.234Z,72.16
2019-03-18T03:33:44.067Z,72.51
2019-03-18T03:36:13.997Z,72.80
2019-03-18T03:38:43.923Z,72.10
2019-03-18T03:41:17.667Z,72.18
2019-03-18T03:43:45.557Z,72.44
2019-03-18T03:46:15.465Z,72.15
2019-03-18T03:48:45.321Z,72.12
2019-03-18T03:51:15.295Z,72.19
2019-03-18T03:53:45.477Z,71.90
2019-03-18T03:56:15.464Z,71.63
2019-03-18T03:58:45.579Z,71.89
2019-03-18T04:01:15.610Z,72.22
2019-03-18T04:03:45.612Z,73.00
2019-03-18T04:06:16.011Z,72.57
2019-03-18T04:08:46.100Z,72.41
2019-03-18T04:11:16.143Z,73.10
2019-03-18T04:13:46.022Z,72.95
2019-03-18T04:16:16.009Z,72.77
2019-03-18T04:18:46.043Z,72.39
2019-03-18T04:21:15.973Z,72.14
2019-03-18T04:23:45.877Z,72.46
2019-03-18T04:26:15.756Z,72.67
2019-03-18T04:28:46.681Z,72.44
2019-03-18T04:31:16.609Z,72.16
2019-03-18T04:33:46.526Z,72.80
2019-03-18T04:36:16.359Z,72.69
2019-03-18T04:38:46.305Z,72.12
2019-03-18T04:41:16.157Z,72.28
2019-03-18T04:43:46.156Z,72.19
2019-03-18T04:46:16.058Z,72.57
2019-03-18T04:48:46.103Z,71.97
2019-03-18T04:51:15.950Z,72.26
2019-03-18T04:53:45.974Z,72.79
2019-03-18T04:56:15.886Z,72.89
2019-03-18T04:58:45.803Z,72.74
2019-03-18T05:01:15.780Z,72.70
2019-03-18T05:03:45.723Z,72.23
2019-03-18T05:06:15.590Z,72.43
2019-03-18T05:08:45.582Z,71.93
2019-03-18T05:11:15.512Z,72.04
2019-03-18T05:13:45.449Z,71.38
2019-03-18T05:16:15.480Z,71.36
2019-03-18T05:18:45.331Z,71.49
2019-03-18T05:21:16.334Z,71.57
2019-03-18T05:23:46.164Z,71.99
2019-03-18T05:26:15.993Z,71.39
2019-03-18T05:28:45.931Z,71.27
2019-03-18T05:31:15.936Z,71.37
2019-03-18T05:33:45.802Z,71.50
2019-03-18T05:36:15.611Z,71.35
2019-03-18T05:38:46.609Z,71.60
2019-03-18T05:41:16.581Z,71.80
2019-03-18T05:43:46.498Z,72.02
2019-03-18T05:46:16.328Z,72.78
2019-03-18T05:48:46.265Z,72.68
2019-03-18T05:51:16.263Z,72.23
2019-03-18T05:53:46.150Z,71.35
2019-03-18T05:56:15.976Z,71.48
2019-03-18T05:58:45.853Z,71.34
2019-03-18T06:01:15.726Z,70.69
2019-03-18T06:03:45.639Z,71.15
2019-03-18T06:06:15.611Z,71.09
2019-03-18T06:08:45.517Z,71.01
2019-03-18T06:11:15.458Z,71.50
2019-03-18T06:13:45.529Z,70.44
2019-03-18T06:16:15.483Z,70.25
2019-03-18T06:18:46.376Z,70.25
2019-03-18T06:21:16.357Z,69.47
2019-03-18T06:23:46.164Z,70.18
2019-03-18T06:26:16.103Z,71.16
2019-03-18T06:28:45.931Z,70.51
2019-03-18T06:31:15.887Z,70.10
2019-03-18T06:33:45.824Z,70.03
2019-03-18T06:36:15.914Z,69.46
2019-03-18T06:38:46.016Z,68.73
2019-03-18T06:41:15.887Z,68.82
2019-03-18T06:43:45.793Z,69.00
2019-03-18T06:46:15.768Z,68.87
2019-03-18T06:48:45.595Z,69.62
2019-03-18T06:51:15.582Z,69.63
2019-03-18T06:53:49.794Z,69.66
2019-03-18T06:56:20.254Z,69.10
2019-03-18T06:58:50.518Z,69.26
2019-03-18T07:01:20.352Z,69.51
2019-03-18T07:03:50.373Z,69.06
2019-03-18T07:06:20.298Z,68.28
2019-03-18T07:08:50.159Z,68.47
2019-03-18T07:11:20.038Z,68.80
2019-03-18T07:13:49.906Z,68.54
2019-03-18T07:16:19.741Z,68.21
2019-03-18T07:18:51.396Z,68.18
2019-03-18T07:21:21.390Z,68.02
2019-03-18T07:23:51.247Z,67.89
2019-03-18T07:26:21.177Z,68.46
2019-03-18T07:28:51.027Z,67.89
2019-03-18T07:31:20.863Z,68.48
2019-03-18T07:33:50.828Z,70.12
2019-03-18T07:36:20.766Z,70.04
2019-03-18T07:38:50.655Z,70.39
2019-03-18T07:41:20.600Z,70.01
2019-03-18T07:43:50.633Z,70.21
2019-03-18T07:46:21.475Z,69.57
2019-03-18T07:48:51.440Z,70.65
2019-03-18T07:51:21.358Z,70.34
2019-03-18T07:53:51.193Z,68.15
2019-03-18T07:56:22.201Z,70.21
2019-03-18T07:58:52.062Z,71.10
2019-03-18T08:01:22.008Z,70.86
2019-03-18T08:03:51.917Z,71.42
2019-03-18T08:06:21.863Z,72.74
2019-03-18T08:08:53.455Z,71.50
2019-03-18T08:11:23.577Z,73.84
2019-03-18T08:13:54.535Z,73.57
2019-03-18T08:16:24.429Z,74.36
2019-03-18T08:18:54.378Z,75.18
2019-03-18T08:21:24.270Z,73.57
2019-03-18T08:23:54.230Z,74.81
2019-03-18T08:26:27.102Z,74.99
2019-03-18T08:28:55.859Z,74.72
2019-03-18T08:31:25.870Z,73.29
2019-03-18T08:33:55.911Z,72.54
2019-03-18T08:36:25.868Z,72.59
2019-03-18T08:38:55.752Z,72.73
2019-03-18T08:41:25.677Z,71.94
2019-03-18T08:43:55.643Z,73.08
2019-03-18T08:46:25.556Z,72.99
2019-03-18T08:48:56.203Z,72.61
2019-03-18T08:51:27.288Z,71.30
2019-03-18T08:53:57.323Z,69.21
2019-03-18T08:56:29.571Z,70.16
2019-03-18T08:58:58.848Z,71.85
2019-03-18T09:01:28.821Z,71.79
2019-03-18T09:03:58.693Z,71.79
2019-03-18T09:06:30.455Z,73.08
2019-03-18T09:09:00.447Z,71.92
2019-03-18T09:11:30.463Z,71.20
2019-03-18T09:14:00.399Z,70.20
2019-03-18T09:16:30.381Z,70.14
2019-03-18T09:19:08.726Z,69.43
2019-03-18T09:21:32.256Z,68.77
2019-03-18T09:24:02.121Z,68.28
2019-03-18T09:26:32.109Z,70.57
2019-03-18T09:29:02.041Z,70.27
2019-03-18T09:31:31.940Z,69.15
2019-03-18T09:34:01.809Z,70.00
2019-03-18T09:36:32.818Z,71.23
2019-03-18T09:39:02.746Z,70.57
2019-03-18T09:41:32.571Z,69.15
2019-03-18T09:44:02.539Z,66.53
2019-03-18T09:46:32.407Z,63.57
2019-03-18T09:49:02.320Z,63.53
2019-03-18T09:51:32.169Z,61.81
2019-03-18T09:54:02.084Z,60.77
2019-03-18T09:56:31.951Z,59.58
2019-03-18T09:59:01.876Z,58.64
2019-03-18T10:01:31.717Z,58.14
2019-03-18T10:04:01.625Z,55.25
2019-03-18T10:06:33.344Z,57.96
2019-03-18T10:09:04.923Z,59.95
2019-03-18T10:11:34.818Z,58.91
2019-03-18T10:14:04.802Z,58.96
2019-03-18T10:16:34.645Z,58.57
2019-03-18T10:19:04.622Z,56.40
2019-03-18T10:21:34.475Z,55.72
2019-03-18T10:24:04.515Z,53.48
2019-03-18T10:26:34.429Z,55.69
2019-03-18T10:29:04.367Z,55.01
2019-03-18T10:31:34.302Z,56.26
2019-03-18T10:34:04.302Z,56.31
2019-03-18T10:36:34.320Z,57.01
2019-03-18T10:39:05.842Z,55.93
2019-03-18T10:41:35.820Z,54.70
2019-03-18T10:44:05.795Z,53.22
2019-03-18T10:46:35.798Z,51.19
2019-03-18T10:49:05.779Z,50.36
2019-03-18T10:51:35.625Z,50.42
2019-03-18T10:54:05.536Z,50.13
2019-03-18T10:56:35.535Z,48.99
2019-03-18T10:59:06.518Z,46.09
2019-03-18T11:01:36.414Z,47.25
2019-03-18T11:04:06.356Z,47.60
2019-03-18T11:06:36.317Z,49.36
2019-03-18T11:09:07.899Z,51.49
2019-03-18T11:11:37.735Z,53.79
2019-03-18T11:14:07.682Z,55.88
2019-03-18T11:16:37.584Z,55.07
2019-03-18T11:19:07.505Z,54.33
2019-03-18T11:21:37.432Z,54.85
2019-03-18T11:24:07.343Z,53.82
2019-03-18T11:26:37.172Z,54.23
2019-03-18T11:29:07.089Z,53.98
2019-03-18T11:31:37.006Z,53.33
2019-03-18T11:34:06.990Z,53.30
2019-03-18T11:36:36.996Z,53.32
2019-03-18T11:39:08.695Z,52.86
2019-03-18T11:41:38.915Z,53.93
2019-03-18T11:44:08.755Z,52.48
2019-03-18T11:46:40.597Z,53.91
2019-03-18T11:49:10.306Z,53.89
2019-03-18T11:51:40.225Z,51.93
2019-03-18T11:54:10.200Z,52.61
2019-03-18T11:56:40.244Z,51.26
2019-03-18T11:59:10.123Z,51.21
2019-03-18T12:01:40.026Z,51.63
2019-03-18T12:04:10.010Z,50.17
2019-03-18T12:06:39.973Z,50.85
2019-03-18T12:09:09.992Z,50.93
2019-03-18T12:11:39.973Z,50.28
2019-03-18T12:14:09.914Z,51.27
2019-03-18T12:16:39.768Z,51.43
2019-03-18T12:19:09.805Z,52.41
2019-03-18T12:21:39.635Z,53.33
2019-03-18T12:24:09.491Z,52.57
2019-03-18T12:26:39.474Z,52.64
2019-03-18T12:29:09.410Z,52.50
2019-03-18T12:31:39.353Z,50.95
2019-03-18T12:34:09.319Z,49.06
2019-03-18T12:36:39.323Z,49.05
2019-03-18T12:39:09.298Z,48.77
2019-03-18T12:41:39.215Z,48.71
2019-03-18T12:44:09.155Z,50.11
2019-03-18T12:46:39.159Z,52.02
2019-03-18T12:49:09.096Z,53.54
2019-03-18T12:51:38.944Z,51.90
2019-03-18T12:54:09.044Z,51.72
2019-03-18T12:56:38.891Z,52.16
2019-03-18T12:59:08.883Z,52.30
2019-03-18T13:01:38.833Z,52.07
2019-03-18T13:04:08.817Z,52.33
2019-03-18T13:06:38.850Z,51.40
2019-03-18T13:09:09.556Z,54.26
2019-03-18T13:11:39.566Z,55.26
2019-03-18T13:14:09.388Z,54.43
2019-03-18T13:16:39.281Z,55.43
2019-03-18T13:19:09.194Z,56.12
2019-03-18T13:21:39.161Z,58.40
2019-03-18T13:24:09.148Z,57.43
2019-03-18T13:26:39.003Z,57.15
2019-03-18T13:29:08.940Z,56.63
2019-03-18T13:31:38.893Z,56.46
2019-03-18T13:34:08.727Z,55.66
2019-03-18T13:36:38.731Z,55.25
2019-03-18T13:39:09.437Z,54.62
2019-03-18T13:41:39.420Z,54.96
2019-03-18T13:44:09.343Z,53.79
2019-03-18T13:46:39.324Z,52.21
2019-03-18T13:49:09.169Z,53.96
2019-03-18T13:51:39.084Z,53.27
2019-03-18T13:54:08.989Z,51.78
2019-03-18T13:56:38.838Z,49.30
2019-03-18T13:59:08.863Z,50.13
2019-03-18T14:01:38.697Z,49.61
2019-03-18T14:04:08.805Z,50.01
2019-03-18T14:06:38.722Z,53.18
2019-03-18T14:09:09.320Z,54.82
2019-03-18T14:11:39.240Z,56.47
2019-03-18T14:14:09.197Z,54.68
2019-03-18T14:16:39.124Z,54.89
2019-03-18T14:19:09.000Z,54.72
2019-03-18T14:21:38.845Z,53.67
2019-03-18T14:24:08.808Z,51.09
2019-03-18T14:26:38.707Z,50.20
2019-03-18T14:29:08.683Z,49.24
2019-03-18T14:31:38.594Z,49.01
2019-03-18T14:34:08.636Z,48.41
2019-03-18T14:36:38.553Z,49.66
2019-03-18T14:39:08.627Z,47.57
2019-03-18T14:41:38.476Z,46.63
2019-03-18T14:44:08.458Z,43.75
2019-03-18T14:46:46.206Z,45.82
2019-03-18T14:49:16.063Z,46.50
2019-03-18T14:51:46.343Z,47.73
2019-03-18T14:54:16.277Z,48.12
2019-03-18T14:56:46.223Z,48.54
2019-03-18T14:59:16.213Z,49.82
2019-03-18T15:01:46.068Z,51.28
2019-03-18T15:04:15.968Z,51.18
2019-03-18T15:06:46.133Z,50.77
2019-03-18T15:09:16.154Z,50.92
2019-03-18T15:11:46.264Z,50.95
2019-03-18T15:14:16.129Z,51.12
2019-03-18T15:16:46.131Z,52.63
2019-03-18T15:19:16.049Z,52.31
2019-03-18T15:21:57.611Z,52.31
2019-03-18T15:24:17.569Z,54.52
2019-03-18T15:26:47.536Z,55.21
2019-03-18T15:29:17.365Z,56.72
2019-03-18T15:31:47.281Z,64.94
2019-03-18T15:34:17.123Z,70.44
2019-03-18T15:36:47.062Z,73.81
2019-03-18T15:39:17.218Z,75.14
2019-03-18T15:41:47.103Z,77.05
2019-03-18T15:44:16.955Z,76.40
2019-03-18T15:46:46.891Z,78.32
2019-03-18T15:49:16.902Z,74.30
2019-03-18T15:51:46.855Z,73.47
2019-03-18T15:54:16.720Z,72.64
2019-03-18T15:56:46.645Z,72.03
2019-03-18T15:59:16.577Z,72.38
2019-03-18T16:01:46.549Z,72.92
2019-03-18T16:04:16.351Z,71.53
2019-03-18T16:06:46.258Z,70.34
2019-03-18T16:09:16.286Z,68.34
2019-03-18T16:11:46.190Z,67.86
2019-03-18T16:14:16.073Z,68.94
2019-03-18T16:16:46.038Z,69.41
2019-03-18T16:19:15.953Z,72.02
2019-03-18T16:21:45.814Z,71.28
2019-03-18T16:24:17.187Z,71.77
2019-03-18T16:26:47.071Z,72.20
2019-03-18T16:29:16.930Z,73.53
2019-03-18T16:31:46.761Z,73.54
2019-03-18T16:34:16.894Z,72.30
2019-03-18T16:36:46.811Z,72.87
2019-03-18T16:39:16.691Z,72.96
2019-03-18T16:41:46.621Z,73.11
2019-03-18T16:44:16.470Z,72.72
2019-03-18T16:46:46.412Z,73.34
2019-03-18T16:49:16.356Z,73.18
2019-03-18T16:51:46.656Z,73.72
2019-03-18T16:54:16.567Z,73.55
2019-03-18T16:56:46.415Z,73.76
2019-03-18T16:59:16.342Z,73.14
2019-03-18T17:01:46.202Z,72.75
2019-03-18T17:04:17.178Z,72.80
2019-03-18T17:06:47.247Z,72.24
2019-03-18T17:09:17.129Z,72.70
2019-03-18T17:11:47.005Z,72.44
2019-03-18T17:14:16.945Z,72.48
2019-03-18T17:16:46.819Z,71.29
2019-03-18T17:19:16.659Z,71.97
2019-03-18T17:21:46.591Z,71.30
2019-03-18T17:24:16.463Z,71.34
2019-03-18T17:26:46.458Z,71.65
2019-03-18T17:29:17.545Z,71.86
2019-03-18T17:31:47.387Z,73.04
2019-03-18T17:34:17.303Z,73.48
2019-03-18T17:36:47.266Z,73.99
2019-03-18T17:39:17.362Z,74.25
2019-03-18T17:41:47.269Z,74.67
2019-03-18T17:44:17.150Z,75.26
2019-03-18T17:46:47.171Z,75.19
2019-03-18T17:49:18.275Z,75.27
2019-03-18T17:51:48.195Z,75.37
2019-03-18T17:54:18.213Z,75.75
2019-03-18T17:56:48.024Z,75.73
2019-03-18T17:59:18.072Z,75.90
2019-03-18T18:01:47.881Z,76.16
2019-03-18T18:04:17.823Z,76.27
2019-03-18T18:06:47.791Z,76.21
2019-03-18T18:09:17.801Z,75.27
2019-03-18T18:11:47.688Z,75.13
2019-03-18T18:14:17.581Z,75.17
2019-03-18T18:16:47.444Z,75.33
2019-03-18T18:19:17.482Z,76.23
2019-03-18T18:21:47.411Z,75.59
2019-03-18T18:24:18.545Z,75.00
2019-03-18T18:26:48.471Z,74.86
2019-03-18T18:29:18.487Z,74.71
2019-03-18T18:31:48.389Z,74.65
2019-03-18T18:34:18.307Z,74.75
2019-03-18T18:36:48.301Z,74.59
2019-03-18T18:39:18.155Z,74.97
2019-03-18T18:41:48.057Z,74.90
2019-03-18T18:44:19.322Z,74.95
2019-03-18T18:46:49.545Z,74.78
2019-03-18T18:49:19.557Z,74.98
2019-03-18T18:51:49.522Z,74.86
2019-03-18T18:54:19.342Z,74.94
2019-03-18T18:56:49.398Z,75.30
2019-03-18T18:59:19.391Z,75.25
2019-03-18T19:01:49.711Z,75.34
2019-03-18T19:04:19.579Z,74.80
2019-03-18T19:06:49.489Z,74.91
2019-03-18T19:09:19.415Z,74.87
2019-03-18T19:11:49.336Z,74.88
2019-03-18T19:14:19.282Z,75.07
2019-03-18T19:16:49.121Z,75.28
2019-03-18T19:19:19.032Z,75.90
2019-03-18T19:21:48.958Z,75.80
2019-03-18T19:24:18.823Z,75.53
2019-03-18T19:26:48.853Z,75.64
2019-03-18T19:29:19.066Z,75.74
2019-03-18T19:31:49.062Z,76.12
2019-03-18T19:34:18.904Z,76.14
2019-03-18T19:36:48.850Z,76.21
2019-03-18T19:39:18.722Z,75.88
2019-03-18T19:41:48.653Z,74.88
2019-03-18T19:44:18.660Z,74.88
2019-03-18T19:46:48.553Z,74.51
2019-03-18T19:49:18.388Z,74.51
2019-03-18T19:51:48.267Z,74.37
2019-03-18T19:54:18.114Z,74.68
2019-03-18T19:56:48.047Z,74.03
2019-03-18T19:59:17.970Z,73.96
2019-03-18T20:01:47.896Z,73.30
2019-03-18T20:04:17.757Z,73.28
2019-03-18T20:06:48.789Z,73.20
2019-03-18T20:09:18.862Z,73.18
2019-03-18T20:11:48.850Z,73.62
2019-03-18T20:14:18.832Z,73.21
2019-03-18T20:16:48.799Z,72.97
2019-03-18T20:19:18.741Z,73.35
2019-03-18T20:21:48.814Z,72.29
2019-03-18T20:24:18.832Z,72.73
2019-03-18T20:26:49.783Z,72.59
2019-03-18T20:29:19.793Z,72.28
2019-03-18T20:31:49.771Z,72.11
2019-03-18T20:34:21.562Z,72.09
2019-03-18T20:36:51.627Z,72.16
2019-03-18T20:39:21.533Z,71.87
2019-03-18T20:41:51.476Z,72.25
2019-03-18T20:44:21.386Z,72.50
2019-03-18T20:46:52.482Z,72.45
2019-03-18T20:49:22.534Z,72.51
2019-03-18T20:51:52.650Z,72.80
2019-03-18T20:54:22.659Z,72.55
2019-03-18T20:56:52.481Z,73.44
2019-03-18T20:59:22.414Z,72.72
2019-03-18T21:01:52.412Z,74.03
2019-03-18T21:04:22.503Z,75.38
2019-03-18T21:06:52.481Z,75.08
2019-03-18T21:09:22.507Z,75.35
2019-03-18T21:11:52.371Z,74.76
2019-03-18T21:14:22.280Z,74.63
2019-03-18T21:16:52.232Z,74.68
2019-03-18T21:19:22.313Z,75.37
2019-03-18T21:21:52.448Z,75.34
2019-03-18T21:24:23.575Z,74.57
2019-03-18T21:26:53.924Z,75.08
2019-03-18T21:29:23.912Z,75.61
2019-03-18T21:31:53.967Z,75.11
2019-03-18T21:34:23.920Z,75.29
2019-03-18T21:36:53.907Z,75.55
2019-03-18T21:39:25.460Z,76.34
2019-03-18T21:41:55.360Z,77.05
2019-03-18T21:44:25.449Z,76.49
2019-03-18T21:46:55.474Z,76.84
2019-03-18T21:49:25.451Z,76.53
2019-03-18T21:51:55.389Z,76.39
2019-03-18T21:54:33.670Z,76.79
2019-03-18T21:56:56.873Z,76.54
2019-03-18T21:59:26.831Z,77.65
2019-03-18T22:01:56.817Z,77.02
2019-03-18T22:04:26.812Z,77.26
2019-03-18T22:06:57.043Z,76.88
2019-03-18T22:09:27.324Z,76.89
2019-03-18T22:11:57.474Z,76.73
2019-03-18T22:14:28.735Z,76.56
2019-03-18T22:16:58.783Z,76.73
2019-03-18T22:19:28.765Z,76.11
2019-03-18T22:21:58.588Z,75.59
2019-03-18T22:24:28.434Z,76.32
2019-03-18T22:26:58.413Z,75.94
2019-03-18T22:29:28.518Z,75.78
2019-03-18T22:31:58.451Z,75.42
2019-03-18T22:34:28.452Z,75.54
2019-03-18T22:36:58.590Z,75.29
2019-03-18T22:39:28.549Z,74.42
2019-03-18T22:41:58.537Z,74.71
2019-03-18T22:44:28.644Z,75.21
2019-03-18T22:46:58.519Z,75.26
2019-03-18T22:49:28.450Z,75.03
2019-03-18T22:51:58.383Z,74.87
2019-03-18T22:54:28.435Z,75.00
2019-03-18T22:57:00.408Z,75.59
2019-03-18T22:59:30.360Z,76.24
2019-03-18T23:02:00.363Z,76.41
2019-03-18T23:04:30.413Z,76.57
2019-03-18T23:07:00.318Z,76.69
2019-03-18T23:09:33.407Z,77.72
2019-03-18T23:12:03.325Z,76.47
2019-03-18T23:14:33.230Z,72.42
2019-03-18T23:17:03.208Z,73.43
2019-03-18T23:19:33.148Z,72.44
2019-03-18T23:22:03.175Z,72.01
2019-03-18T23:24:33.083Z,71.62
2019-03-18T23:27:03.099Z,68.91
2019-03-18T23:29:33.184Z,71.65
2019-03-18T23:32:03.079Z,70.53
2019-03-18T23:34:32.983Z,70.63
2019-03-18T23:37:03.158Z,68.41
2019-03-18T23:39:33.005Z,69.21
2019-03-18T23:42:02.918Z,69.64
2019-03-18T23:44:32.820Z,70.46
2019-03-18T23:47:02.826Z,69.81
2019-03-18T23:49:32.838Z,70.00
2019-03-18T23:52:03.013Z,69.04
2019-03-18T23:54:32.939Z,68.68
2019-03-18T23:57:03.117Z,70.05
2019-03-18T23:59:33.058Z,71.63
